sensor_id;sensor_type;location;lat;lon;timestamp;temperature;humidity
66928;DHT22;59882;45.624;11.698;2023-06-04T00:02:16;20.50;78.80
66928;DHT22;59882;45.624;11.698;2023-06-04T00:04:42;20.50;79.10
66928;DHT22;59882;45.624;11.698;2023-06-04T00:07:07;20.40;79.30
66928;DHT22;59882;45.624;11.698;2023-06-04T00:09:33;20.40;78.90
66928;DHT22;59882;45.624;11.698;2023-06-04T00:11:59;20.40;79.50
66928;DHT22;59882;45.624;11.698;2023-06-04T00:14:24;20.40;80.00
66928;DHT22;59882;45.624;11.698;2023-06-04T00:16:50;20.40;79.80
66928;DHT22;59882;45.624;11.698;2023-06-04T00:19:16;20.40;79.90
66928;DHT22;59882;45.624;11.698;2023-06-04T00:21:41;20.40;79.50
66928;DHT22;59882;45.624;11.698;2023-06-04T00:24:07;20.40;79.50
66928;DHT22;59882;45.624;11.698;2023-06-04T00:26:33;20.40;79.50
66928;DHT22;59882;45.624;11.698;2023-06-04T00:29:00;20.40;80.20
66928;DHT22;59882;45.624;11.698;2023-06-04T00:31:25;20.40;80.00
66928;DHT22;59882;45.624;11.698;2023-06-04T00:33:51;20.40;79.90
66928;DHT22;59882;45.624;11.698;2023-06-04T00:36:17;20.40;80.10
66928;DHT22;59882;45.624;11.698;2023-06-04T00:38:43;20.40;80.00
66928;DHT22;59882;45.624;11.698;2023-06-04T00:41:08;20.40;79.50
66928;DHT22;59882;45.624;11.698;2023-06-04T00:43:34;20.40;79.30
66928;DHT22;59882;45.624;11.698;2023-06-04T00:46:01;20.40;79.10
66928;DHT22;59882;45.624;11.698;2023-06-04T00:48:30;20.40;78.70
66928;DHT22;59882;45.624;11.698;2023-06-04T00:50:56;20.40;78.40
66928;DHT22;59882;45.624;11.698;2023-06-04T00:53:24;20.40;77.50
66928;DHT22;59882;45.624;11.698;2023-06-04T00:55:50;20.40;77.40
66928;DHT22;59882;45.624;11.698;2023-06-04T00:58:16;20.30;77.40
66928;DHT22;59882;45.624;11.698;2023-06-04T01:00:43;20.30;77.90
66928;DHT22;59882;45.624;11.698;2023-06-04T01:03:19;20.30;77.90
66928;DHT22;59882;45.624;11.698;2023-06-04T01:08:50;20.20;78.00
66928;DHT22;59882;45.624;11.698;2023-06-04T01:11:35;20.20;78.00
66928;DHT22;59882;45.624;11.698;2023-06-04T01:14:03;20.20;77.80
66928;DHT22;59882;45.624;11.698;2023-06-04T01:16:47;20.20;77.70
66928;DHT22;59882;45.624;11.698;2023-06-04T01:22:04;20.20;78.50
66928;DHT22;59882;45.624;11.698;2023-06-04T01:24:37;20.20;78.80
66928;DHT22;59882;45.624;11.698;2023-06-04T01:27:07;20.20;78.90
66928;DHT22;59882;45.624;11.698;2023-06-04T01:29:34;20.10;78.80
66928;DHT22;59882;45.624;11.698;2023-06-04T01:32:01;20.10;78.60
66928;DHT22;59882;45.624;11.698;2023-06-04T01:34:27;20.10;79.00
66928;DHT22;59882;45.624;11.698;2023-06-04T01:36:53;20.10;78.50
66928;DHT22;59882;45.624;11.698;2023-06-04T01:39:19;20.20;79.50
66928;DHT22;59882;45.624;11.698;2023-06-04T01:41:44;20.10;79.40
66928;DHT22;59882;45.624;11.698;2023-06-04T01:44:10;20.10;79.10
66928;DHT22;59882;45.624;11.698;2023-06-04T01:46:35;20.00;79.30
66928;DHT22;59882;45.624;11.698;2023-06-04T01:49:01;20.00;79.00
66928;DHT22;59882;45.624;11.698;2023-06-04T01:51:27;20.10;78.90
66928;DHT22;59882;45.624;11.698;2023-06-04T01:53:52;20.10;78.80
66928;DHT22;59882;45.624;11.698;2023-06-04T01:56:18;20.10;79.00
66928;DHT22;59882;45.624;11.698;2023-06-04T01:58:46;20.10;79.20
66928;DHT22;59882;45.624;11.698;2023-06-04T02:01:12;20.00;79.10
66928;DHT22;59882;45.624;11.698;2023-06-04T02:03:37;20.00;78.70
66928;DHT22;59882;45.624;11.698;2023-06-04T02:06:04;19.90;78.60
66928;DHT22;59882;45.624;11.698;2023-06-04T02:08:33;19.90;79.20
66928;DHT22;59882;45.624;11.698;2023-06-04T02:10:59;19.80;79.10
66928;DHT22;59882;45.624;11.698;2023-06-04T02:13:25;19.80;79.40
66928;DHT22;59882;45.624;11.698;2023-06-04T02:15:50;19.80;80.20
66928;DHT22;59882;45.624;11.698;2023-06-04T02:18:18;19.70;80.50
66928;DHT22;59882;45.624;11.698;2023-06-04T02:20:46;19.70;80.80
66928;DHT22;59882;45.624;11.698;2023-06-04T02:23:13;19.70;80.70
66928;DHT22;59882;45.624;11.698;2023-06-04T02:25:39;19.60;80.90
66928;DHT22;59882;45.624;11.698;2023-06-04T02:28:05;19.60;80.80
66928;DHT22;59882;45.624;11.698;2023-06-04T02:30:31;19.60;80.70
66928;DHT22;59882;45.624;11.698;2023-06-04T02:32:56;19.60;80.90
66928;DHT22;59882;45.624;11.698;2023-06-04T02:35:22;19.60;80.70
66928;DHT22;59882;45.624;11.698;2023-06-04T02:37:51;19.70;80.70
66928;DHT22;59882;45.624;11.698;2023-06-04T02:40:16;19.70;80.50
66928;DHT22;59882;45.624;11.698;2023-06-04T02:42:42;19.70;80.30
66928;DHT22;59882;45.624;11.698;2023-06-04T02:45:09;19.70;80.30
66928;DHT22;59882;45.624;11.698;2023-06-04T02:47:35;19.70;80.50
66928;DHT22;59882;45.624;11.698;2023-06-04T02:50:01;19.70;80.70
66928;DHT22;59882;45.624;11.698;2023-06-04T02:52:28;19.70;80.30
66928;DHT22;59882;45.624;11.698;2023-06-04T02:54:56;19.70;80.70
66928;DHT22;59882;45.624;11.698;2023-06-04T02:57:21;19.70;80.90
66928;DHT22;59882;45.624;11.698;2023-06-04T02:59:47;19.70;81.00
66928;DHT22;59882;45.624;11.698;2023-06-04T03:02:12;19.70;81.00
66928;DHT22;59882;45.624;11.698;2023-06-04T03:04:40;19.60;81.10
66928;DHT22;59882;45.624;11.698;2023-06-04T03:07:08;19.70;80.80
66928;DHT22;59882;45.624;11.698;2023-06-04T03:09:36;19.70;80.70
66928;DHT22;59882;45.624;11.698;2023-06-04T03:12:03;19.70;81.10
66928;DHT22;59882;45.624;11.698;2023-06-04T03:14:29;19.70;81.10
66928;DHT22;59882;45.624;11.698;2023-06-04T03:17:01;19.70;81.30
66928;DHT22;59882;45.624;11.698;2023-06-04T03:19:35;19.60;81.40
66928;DHT22;59882;45.624;11.698;2023-06-04T03:22:01;19.60;81.70
66928;DHT22;59882;45.624;11.698;2023-06-04T03:24:32;19.60;81.80
66928;DHT22;59882;45.624;11.698;2023-06-04T03:26:57;19.70;81.50
66928;DHT22;59882;45.624;11.698;2023-06-04T03:29:23;19.60;80.90
66928;DHT22;59882;45.624;11.698;2023-06-04T03:31:49;19.70;80.80
66928;DHT22;59882;45.624;11.698;2023-06-04T03:34:14;19.70;81.20
66928;DHT22;59882;45.624;11.698;2023-06-04T03:36:40;19.70;81.00
66928;DHT22;59882;45.624;11.698;2023-06-04T03:39:05;19.70;81.10
66928;DHT22;59882;45.624;11.698;2023-06-04T03:41:31;19.60;81.20
66928;DHT22;59882;45.624;11.698;2023-06-04T03:43:57;19.60;81.50
66928;DHT22;59882;45.624;11.698;2023-06-04T03:46:22;19.50;81.70
66928;DHT22;59882;45.624;11.698;2023-06-04T03:48:50;19.50;81.80
66928;DHT22;59882;45.624;11.698;2023-06-04T03:51:16;19.40;81.40
66928;DHT22;59882;45.624;11.698;2023-06-04T03:53:41;19.40;82.00
66928;DHT22;59882;45.624;11.698;2023-06-04T03:56:07;19.40;82.50
66928;DHT22;59882;45.624;11.698;2023-06-04T03:58:35;19.40;82.70
66928;DHT22;59882;45.624;11.698;2023-06-04T04:01:01;19.40;82.70
66928;DHT22;59882;45.624;11.698;2023-06-04T04:03:30;19.40;83.10
66928;DHT22;59882;45.624;11.698;2023-06-04T04:05:57;19.40;82.90
66928;DHT22;59882;45.624;11.698;2023-06-04T04:08:23;19.40;82.80
66928;DHT22;59882;45.624;11.698;2023-06-04T04:10:49;19.30;82.70
66928;DHT22;59882;45.624;11.698;2023-06-04T04:13:14;19.30;82.40
66928;DHT22;59882;45.624;11.698;2023-06-04T04:15:40;19.30;82.30
66928;DHT22;59882;45.624;11.698;2023-06-04T04:18:06;19.30;82.10
66928;DHT22;59882;45.624;11.698;2023-06-04T04:20:33;19.40;82.10
66928;DHT22;59882;45.624;11.698;2023-06-04T04:22:59;19.40;81.90
66928;DHT22;59882;45.624;11.698;2023-06-04T04:25:25;19.40;81.50
66928;DHT22;59882;45.624;11.698;2023-06-04T04:27:51;19.40;81.50
66928;DHT22;59882;45.624;11.698;2023-06-04T04:30:17;19.40;81.40
66928;DHT22;59882;45.624;11.698;2023-06-04T04:32:44;19.40;81.50
66928;DHT22;59882;45.624;11.698;2023-06-04T04:35:14;19.40;81.20
66928;DHT22;59882;45.624;11.698;2023-06-04T04:37:44;19.40;80.80
66928;DHT22;59882;45.624;11.698;2023-06-04T04:40:10;19.40;80.50
66928;DHT22;59882;45.624;11.698;2023-06-04T04:42:37;19.40;79.50
66928;DHT22;59882;45.624;11.698;2023-06-04T04:45:03;19.40;79.40
66928;DHT22;59882;45.624;11.698;2023-06-04T04:47:29;19.40;79.80
66928;DHT22;59882;45.624;11.698;2023-06-04T04:49:55;19.40;80.20
66928;DHT22;59882;45.624;11.698;2023-06-04T04:52:21;19.40;80.40
66928;DHT22;59882;45.624;11.698;2023-06-04T04:54:46;19.40;80.30
66928;DHT22;59882;45.624;11.698;2023-06-04T04:57:12;19.40;80.40
66928;DHT22;59882;45.624;11.698;2023-06-04T04:59:37;19.40;80.30
66928;DHT22;59882;45.624;11.698;2023-06-04T05:02:03;19.40;80.20
66928;DHT22;59882;45.624;11.698;2023-06-04T05:04:29;19.40;80.40
66928;DHT22;59882;45.624;11.698;2023-06-04T05:06:54;19.30;80.10
66928;DHT22;59882;45.624;11.698;2023-06-04T05:09:20;19.30;79.80
66928;DHT22;59882;45.624;11.698;2023-06-04T05:11:46;19.30;79.80
66928;DHT22;59882;45.624;11.698;2023-06-04T05:14:11;19.30;79.80
66928;DHT22;59882;45.624;11.698;2023-06-04T05:16:37;19.30;79.90
66928;DHT22;59882;45.624;11.698;2023-06-04T05:19:06;19.30;79.90
66928;DHT22;59882;45.624;11.698;2023-06-04T05:21:31;19.30;80.00
66928;DHT22;59882;45.624;11.698;2023-06-04T05:23:57;19.30;80.00
66928;DHT22;59882;45.624;11.698;2023-06-04T05:26:23;19.30;80.50
66928;DHT22;59882;45.624;11.698;2023-06-04T05:28:51;19.40;80.40
66928;DHT22;59882;45.624;11.698;2023-06-04T05:31:16;19.40;80.10
66928;DHT22;59882;45.624;11.698;2023-06-04T05:33:43;19.40;80.40
66928;DHT22;59882;45.624;11.698;2023-06-04T05:36:09;19.40;80.20
66928;DHT22;59882;45.624;11.698;2023-06-04T05:38:35;19.40;80.70
66928;DHT22;59882;45.624;11.698;2023-06-04T05:41:01;19.40;80.50
66928;DHT22;59882;45.624;11.698;2023-06-04T05:43:27;19.40;80.50
66928;DHT22;59882;45.624;11.698;2023-06-04T05:45:52;19.40;80.50
66928;DHT22;59882;45.624;11.698;2023-06-04T05:48:18;19.40;80.60
66928;DHT22;59882;45.624;11.698;2023-06-04T05:50:44;19.40;80.50
66928;DHT22;59882;45.624;11.698;2023-06-04T05:53:10;19.40;80.50
66928;DHT22;59882;45.624;11.698;2023-06-04T05:55:36;19.40;81.00
66928;DHT22;59882;45.624;11.698;2023-06-04T05:58:01;19.50;81.00
66928;DHT22;59882;45.624;11.698;2023-06-04T06:00:27;19.50;80.60
66928;DHT22;59882;45.624;11.698;2023-06-04T06:02:53;19.60;80.60
66928;DHT22;59882;45.624;11.698;2023-06-04T06:05:19;19.60;81.00
66928;DHT22;59882;45.624;11.698;2023-06-04T06:07:45;19.70;80.50
66928;DHT22;59882;45.624;11.698;2023-06-04T06:10:11;19.70;80.60
66928;DHT22;59882;45.624;11.698;2023-06-04T06:12:37;19.70;80.60
66928;DHT22;59882;45.624;11.698;2023-06-04T06:15:03;19.70;80.80
66928;DHT22;59882;45.624;11.698;2023-06-04T06:17:29;19.80;80.70
66928;DHT22;59882;45.624;11.698;2023-06-04T06:19:55;19.80;80.60
66928;DHT22;59882;45.624;11.698;2023-06-04T06:22:21;19.90;80.60
66928;DHT22;59882;45.624;11.698;2023-06-04T06:24:47;19.90;80.40
66928;DHT22;59882;45.624;11.698;2023-06-04T06:27:16;20.00;80.30
66928;DHT22;59882;45.624;11.698;2023-06-04T06:29:42;20.00;80.20
66928;DHT22;59882;45.624;11.698;2023-06-04T06:32:09;20.10;80.60
66928;DHT22;59882;45.624;11.698;2023-06-04T06:34:35;20.10;80.70
66928;DHT22;59882;45.624;11.698;2023-06-04T06:37:01;20.20;80.60
66928;DHT22;59882;45.624;11.698;2023-06-04T06:39:26;20.30;80.50
66928;DHT22;59882;45.624;11.698;2023-06-04T06:41:52;20.30;80.20
66928;DHT22;59882;45.624;11.698;2023-06-04T06:44:17;20.40;80.20
66928;DHT22;59882;45.624;11.698;2023-06-04T06:46:43;20.40;80.10
66928;DHT22;59882;45.624;11.698;2023-06-04T06:49:08;20.50;79.30
66928;DHT22;59882;45.624;11.698;2023-06-04T06:51:34;20.50;79.70
66928;DHT22;59882;45.624;11.698;2023-06-04T06:54:00;20.50;80.10
66928;DHT22;59882;45.624;11.698;2023-06-04T06:56:25;20.50;79.30
66928;DHT22;59882;45.624;11.698;2023-06-04T06:58:54;20.50;79.20
66928;DHT22;59882;45.624;11.698;2023-06-04T07:01:20;20.50;79.30
66928;DHT22;59882;45.624;11.698;2023-06-04T07:03:46;20.60;79.60
66928;DHT22;59882;45.624;11.698;2023-06-04T07:06:12;20.70;79.20
66928;DHT22;59882;45.624;11.698;2023-06-04T07:08:39;20.70;78.70
66928;DHT22;59882;45.624;11.698;2023-06-04T07:11:04;20.60;79.00
66928;DHT22;59882;45.624;11.698;2023-06-04T07:13:30;20.70;78.70
66928;DHT22;59882;45.624;11.698;2023-06-04T07:15:58;20.70;78.70
66928;DHT22;59882;45.624;11.698;2023-06-04T07:18:24;20.70;79.00
66928;DHT22;59882;45.624;11.698;2023-06-04T07:20:50;20.70;78.90
66928;DHT22;59882;45.624;11.698;2023-06-04T07:23:18;20.70;78.80
66928;DHT22;59882;45.624;11.698;2023-06-04T07:25:43;20.80;79.10
66928;DHT22;59882;45.624;11.698;2023-06-04T07:28:09;20.80;79.20
66928;DHT22;59882;45.624;11.698;2023-06-04T07:30:35;20.90;78.80
66928;DHT22;59882;45.624;11.698;2023-06-04T07:33:02;20.90;79.00
66928;DHT22;59882;45.624;11.698;2023-06-04T07:35:27;21.00;78.30
66928;DHT22;59882;45.624;11.698;2023-06-04T07:37:53;21.10;78.20
66928;DHT22;59882;45.624;11.698;2023-06-04T07:40:19;21.20;78.20
66928;DHT22;59882;45.624;11.698;2023-06-04T07:42:45;21.20;77.60
66928;DHT22;59882;45.624;11.698;2023-06-04T07:45:12;21.30;77.00
66928;DHT22;59882;45.624;11.698;2023-06-04T07:47:38;21.40;76.60
66928;DHT22;59882;45.624;11.698;2023-06-04T07:50:04;21.40;76.50
66928;DHT22;59882;45.624;11.698;2023-06-04T07:52:31;21.50;76.50
66928;DHT22;59882;45.624;11.698;2023-06-04T07:54:57;21.60;75.40
66928;DHT22;59882;45.624;11.698;2023-06-04T07:57:23;21.70;75.70
66928;DHT22;59882;45.624;11.698;2023-06-04T07:59:49;21.80;75.70
66928;DHT22;59882;45.624;11.698;2023-06-04T08:02:15;21.90;76.00
66928;DHT22;59882;45.624;11.698;2023-06-04T08:04:41;22.10;75.80
66928;DHT22;59882;45.624;11.698;2023-06-04T08:07:06;22.30;75.10
66928;DHT22;59882;45.624;11.698;2023-06-04T08:09:32;22.40;74.10
66928;DHT22;59882;45.624;11.698;2023-06-04T08:11:58;22.50;73.40
66928;DHT22;59882;45.624;11.698;2023-06-04T08:14:23;22.60;72.70
66928;DHT22;59882;45.624;11.698;2023-06-04T08:16:55;22.80;73.00
66928;DHT22;59882;45.624;11.698;2023-06-04T08:19:21;22.90;72.20
66928;DHT22;59882;45.624;11.698;2023-06-04T08:21:47;22.90;71.20
66928;DHT22;59882;45.624;11.698;2023-06-04T08:24:13;23.00;71.00
66928;DHT22;59882;45.624;11.698;2023-06-04T08:26:39;23.20;70.00
66928;DHT22;59882;45.624;11.698;2023-06-04T08:29:05;23.30;68.70
66928;DHT22;59882;45.624;11.698;2023-06-04T08:31:31;23.40;68.30
66928;DHT22;59882;45.624;11.698;2023-06-04T08:33:57;23.50;68.00
66928;DHT22;59882;45.624;11.698;2023-06-04T08:36:22;23.60;67.90
66928;DHT22;59882;45.624;11.698;2023-06-04T08:38:48;23.80;67.50
66928;DHT22;59882;45.624;11.698;2023-06-04T08:44:21;24.00;67.20
66928;DHT22;59882;45.624;11.698;2023-06-04T08:46:51;24.10;66.90
66928;DHT22;59882;45.624;11.698;2023-06-04T08:49:19;24.10;65.80
66928;DHT22;59882;45.624;11.698;2023-06-04T08:51:47;24.10;65.60
66928;DHT22;59882;45.624;11.698;2023-06-04T08:54:13;24.20;64.50
66928;DHT22;59882;45.624;11.698;2023-06-04T08:56:39;24.20;64.80
66928;DHT22;59882;45.624;11.698;2023-06-04T08:59:06;24.20;65.00
66928;DHT22;59882;45.624;11.698;2023-06-04T09:01:33;24.30;64.20
66928;DHT22;59882;45.624;11.698;2023-06-04T09:04:03;24.20;64.10
66928;DHT22;59882;45.624;11.698;2023-06-04T09:06:29;24.30;64.10
66928;DHT22;59882;45.624;11.698;2023-06-04T09:08:57;24.30;63.00
66928;DHT22;59882;45.624;11.698;2023-06-04T09:11:36;24.40;63.00
66928;DHT22;59882;45.624;11.698;2023-06-04T09:14:07;24.40;62.90
66928;DHT22;59882;45.624;11.698;2023-06-04T09:16:51;24.50;62.20
66928;DHT22;59882;45.624;11.698;2023-06-04T09:19:18;24.50;61.50
66928;DHT22;59882;45.624;11.698;2023-06-04T09:24:15;24.50;61.90
66928;DHT22;59882;45.624;11.698;2023-06-04T09:26:41;24.40;62.00
66928;DHT22;59882;45.624;11.698;2023-06-04T09:29:07;24.40;62.10
66928;DHT22;59882;45.624;11.698;2023-06-04T09:31:32;24.40;61.90
66928;DHT22;59882;45.624;11.698;2023-06-04T09:34:03;24.40;61.80
66928;DHT22;59882;45.624;11.698;2023-06-04T09:36:36;24.40;61.60
66928;DHT22;59882;45.624;11.698;2023-06-04T09:39:03;24.40;61.10
66928;DHT22;59882;45.624;11.698;2023-06-04T09:41:29;24.30;61.40
66928;DHT22;59882;45.624;11.698;2023-06-04T09:44:02;24.10;61.90
66928;DHT22;59882;45.624;11.698;2023-06-04T09:46:28;24.10;61.90
66928;DHT22;59882;45.624;11.698;2023-06-04T09:49:03;23.90;62.10
66928;DHT22;59882;45.624;11.698;2023-06-04T09:51:30;23.80;62.50
66928;DHT22;59882;45.624;11.698;2023-06-04T09:54:01;23.70;61.80
66928;DHT22;59882;45.624;11.698;2023-06-04T09:56:28;23.60;62.70
66928;DHT22;59882;45.624;11.698;2023-06-04T09:58:57;23.50;63.00
66928;DHT22;59882;45.624;11.698;2023-06-04T10:01:26;23.40;63.70
66928;DHT22;59882;45.624;11.698;2023-06-04T10:03:53;23.40;64.00
66928;DHT22;59882;45.624;11.698;2023-06-04T10:06:20;23.40;63.90
66928;DHT22;59882;45.624;11.698;2023-06-04T10:08:49;23.30;64.10
66928;DHT22;59882;45.624;11.698;2023-06-04T10:11:20;23.30;64.60
66928;DHT22;59882;45.624;11.698;2023-06-04T10:13:59;23.30;64.90
66928;DHT22;59882;45.624;11.698;2023-06-04T10:16:27;23.20;65.10
66928;DHT22;59882;45.624;11.698;2023-06-04T10:18:54;23.20;65.10
66928;DHT22;59882;45.624;11.698;2023-06-04T10:21:21;23.20;65.50
66928;DHT22;59882;45.624;11.698;2023-06-04T10:23:49;23.30;65.30
66928;DHT22;59882;45.624;11.698;2023-06-04T10:26:15;23.30;64.80
66928;DHT22;59882;45.624;11.698;2023-06-04T10:28:41;23.30;64.20
66928;DHT22;59882;45.624;11.698;2023-06-04T10:31:09;23.30;64.80
66928;DHT22;59882;45.624;11.698;2023-06-04T10:33:35;23.30;65.00
66928;DHT22;59882;45.624;11.698;2023-06-04T10:36:18;23.40;65.10
66928;DHT22;59882;45.624;11.698;2023-06-04T10:38:50;23.40;65.30
66928;DHT22;59882;45.624;11.698;2023-06-04T10:41:17;23.40;65.00
66928;DHT22;59882;45.624;11.698;2023-06-04T10:43:49;23.40;65.00
66928;DHT22;59882;45.624;11.698;2023-06-04T10:46:17;23.40;64.30
66928;DHT22;59882;45.624;11.698;2023-06-04T10:48:49;23.40;63.70
66928;DHT22;59882;45.624;11.698;2023-06-04T10:51:28;23.50;64.70
66928;DHT22;59882;45.624;11.698;2023-06-04T10:53:59;23.50;64.10
66928;DHT22;59882;45.624;11.698;2023-06-04T10:56:30;23.60;64.10
66928;DHT22;59882;45.624;11.698;2023-06-04T10:58:57;23.80;64.00
66928;DHT22;59882;45.624;11.698;2023-06-04T11:01:32;23.90;64.00
66928;DHT22;59882;45.624;11.698;2023-06-04T11:03:58;24.10;63.80
66928;DHT22;59882;45.624;11.698;2023-06-04T11:06:24;24.20;64.10
66928;DHT22;59882;45.624;11.698;2023-06-04T11:09:06;24.40;64.70
66928;DHT22;59882;45.624;11.698;2023-06-04T11:11:32;24.40;65.00
66928;DHT22;59882;45.624;11.698;2023-06-04T11:14:11;24.60;63.90
66928;DHT22;59882;45.624;11.698;2023-06-04T11:16:41;24.80;65.30
66928;DHT22;59882;45.624;11.698;2023-06-04T11:19:06;24.90;63.50
66928;DHT22;59882;45.624;11.698;2023-06-04T11:21:34;24.90;63.60
66928;DHT22;59882;45.624;11.698;2023-06-04T11:24:02;25.10;63.70
66928;DHT22;59882;45.624;11.698;2023-06-04T11:26:35;25.30;62.60
66928;DHT22;59882;45.624;11.698;2023-06-04T11:29:02;25.40;60.90
66928;DHT22;59882;45.624;11.698;2023-06-04T11:31:44;25.50;60.90
66928;DHT22;59882;45.624;11.698;2023-06-04T11:34:10;25.60;61.70
66928;DHT22;59882;45.624;11.698;2023-06-04T11:36:38;25.80;61.70
66928;DHT22;59882;45.624;11.698;2023-06-04T11:39:04;26.00;59.80
66928;DHT22;59882;45.624;11.698;2023-06-04T11:41:33;26.20;59.30
66928;DHT22;59882;45.624;11.698;2023-06-04T11:44:04;26.30;59.00
66928;DHT22;59882;45.624;11.698;2023-06-04T11:46:32;26.40;57.70
66928;DHT22;59882;45.624;11.698;2023-06-04T11:48:59;26.50;57.90
66928;DHT22;59882;45.624;11.698;2023-06-04T11:51:25;26.50;56.90
66928;DHT22;59882;45.624;11.698;2023-06-04T11:53:51;26.50;56.40
66928;DHT22;59882;45.624;11.698;2023-06-04T11:56:17;26.40;56.50
66928;DHT22;59882;45.624;11.698;2023-06-04T11:58:43;26.40;57.90
66928;DHT22;59882;45.624;11.698;2023-06-04T12:01:11;26.40;56.00
66928;DHT22;59882;45.624;11.698;2023-06-04T12:03:40;26.50;56.00
66928;DHT22;59882;45.624;11.698;2023-06-04T12:06:24;26.40;55.90
66928;DHT22;59882;45.624;11.698;2023-06-04T12:08:51;26.40;56.80
66928;DHT22;59882;45.624;11.698;2023-06-04T12:11:35;26.50;55.70
66928;DHT22;59882;45.624;11.698;2023-06-04T12:14:07;26.50;57.00
66928;DHT22;59882;45.624;11.698;2023-06-04T12:16:33;26.60;55.50
66928;DHT22;59882;45.624;11.698;2023-06-04T12:19:12;26.70;54.70
66928;DHT22;59882;45.624;11.698;2023-06-04T12:21:39;26.80;55.50
66928;DHT22;59882;45.624;11.698;2023-06-04T12:26:34;26.90;54.80
66928;DHT22;59882;45.624;11.698;2023-06-04T12:29:13;27.00;55.20
66928;DHT22;59882;45.624;11.698;2023-06-04T12:31:40;27.10;52.60
66928;DHT22;59882;45.624;11.698;2023-06-04T12:34:05;27.30;54.40
66928;DHT22;59882;45.624;11.698;2023-06-04T12:36:31;27.40;53.50
66928;DHT22;59882;45.624;11.698;2023-06-04T12:39:02;27.60;53.40
66928;DHT22;59882;45.624;11.698;2023-06-04T12:41:29;27.80;52.20
66928;DHT22;59882;45.624;11.698;2023-06-04T12:43:55;27.90;51.30
66928;DHT22;59882;45.624;11.698;2023-06-04T12:46:22;28.20;51.60
66928;DHT22;59882;45.624;11.698;2023-06-04T12:48:51;28.40;49.70
66928;DHT22;59882;45.624;11.698;2023-06-04T12:51:17;28.90;48.60
66928;DHT22;59882;45.624;11.698;2023-06-04T12:53:42;29.90;47.50
66928;DHT22;59882;45.624;11.698;2023-06-04T12:56:09;31.40;46.20
66928;DHT22;59882;45.624;11.698;2023-06-04T12:58:34;32.90;40.80
66928;DHT22;59882;45.624;11.698;2023-06-04T13:01:03;33.60;40.50
66928;DHT22;59882;45.624;11.698;2023-06-04T13:03:32;34.20;38.40
66928;DHT22;59882;45.624;11.698;2023-06-04T13:05:58;35.30;37.20
66928;DHT22;59882;45.624;11.698;2023-06-04T13:08:24;36.50;35.90
66928;DHT22;59882;45.624;11.698;2023-06-04T13:10:51;37.70;34.60
66928;DHT22;59882;45.624;11.698;2023-06-04T13:13:17;38.90;31.40
66928;DHT22;59882;45.624;11.698;2023-06-04T13:15:44;39.90;30.60
66928;DHT22;59882;45.624;11.698;2023-06-04T13:18:10;40.60;29.50
66928;DHT22;59882;45.624;11.698;2023-06-04T13:20:36;41.30;29.90
66928;DHT22;59882;45.624;11.698;2023-06-04T13:23:02;42.20;27.90
66928;DHT22;59882;45.624;11.698;2023-06-04T13:25:28;42.90;26.80
66928;DHT22;59882;45.624;11.698;2023-06-04T13:27:54;43.20;26.70
66928;DHT22;59882;45.624;11.698;2023-06-04T13:30:21;42.90;26.60
66928;DHT22;59882;45.624;11.698;2023-06-04T13:32:49;42.70;27.10
66928;DHT22;59882;45.624;11.698;2023-06-04T13:35:15;43.30;26.90
66928;DHT22;59882;45.624;11.698;2023-06-04T13:37:40;43.90;26.70
66928;DHT22;59882;45.624;11.698;2023-06-04T13:40:07;44.30;26.10
66928;DHT22;59882;45.624;11.698;2023-06-04T13:42:33;44.60;26.10
66928;DHT22;59882;45.624;11.698;2023-06-04T13:44:58;44.90;25.00
66928;DHT22;59882;45.624;11.698;2023-06-04T13:47:25;45.10;24.80
66928;DHT22;59882;45.624;11.698;2023-06-04T13:49:50;45.20;24.80
66928;DHT22;59882;45.624;11.698;2023-06-04T13:52:16;44.10;25.20
66928;DHT22;59882;45.624;11.698;2023-06-04T13:54:42;42.30;26.80
66928;DHT22;59882;45.624;11.698;2023-06-04T13:57:08;40.60;28.40
66928;DHT22;59882;45.624;11.698;2023-06-04T13:59:37;39.20;30.30
66928;DHT22;59882;45.624;11.698;2023-06-04T14:02:03;38.00;31.60
66928;DHT22;59882;45.624;11.698;2023-06-04T14:04:29;37.30;32.30
66928;DHT22;59882;45.624;11.698;2023-06-04T14:06:54;36.90;33.30
66928;DHT22;59882;45.624;11.698;2023-06-04T14:09:20;36.40;33.50
66928;DHT22;59882;45.624;11.698;2023-06-04T14:11:46;36.00;34.90
66928;DHT22;59882;45.624;11.698;2023-06-04T14:14:19;35.80;35.00
66928;DHT22;59882;45.624;11.698;2023-06-04T14:16:45;35.50;35.70
66928;DHT22;59882;45.624;11.698;2023-06-04T14:19:11;35.00;36.20
66928;DHT22;59882;45.624;11.698;2023-06-04T14:21:37;34.90;37.20
66928;DHT22;59882;45.624;11.698;2023-06-04T14:24:03;34.90;36.80
66928;DHT22;59882;45.624;11.698;2023-06-04T14:26:29;34.70;36.60
66928;DHT22;59882;45.624;11.698;2023-06-04T14:28:55;34.50;36.80
66928;DHT22;59882;45.624;11.698;2023-06-04T14:31:20;34.00;37.30
66928;DHT22;59882;45.624;11.698;2023-06-04T14:33:46;33.50;38.40
66928;DHT22;59882;45.624;11.698;2023-06-04T14:36:12;33.00;39.10
66928;DHT22;59882;45.624;11.698;2023-06-04T14:38:38;32.50;39.80
66928;DHT22;59882;45.624;11.698;2023-06-04T14:41:03;32.20;40.00
66928;DHT22;59882;45.624;11.698;2023-06-04T14:43:29;31.80;41.30
66928;DHT22;59882;45.624;11.698;2023-06-04T14:45:55;31.50;41.90
66928;DHT22;59882;45.624;11.698;2023-06-04T14:48:21;31.50;42.70
66928;DHT22;59882;45.624;11.698;2023-06-04T14:50:46;31.60;44.20
66928;DHT22;59882;45.624;11.698;2023-06-04T14:53:15;31.80;43.00
66928;DHT22;59882;45.624;11.698;2023-06-04T14:55:40;32.00;42.40
66928;DHT22;59882;45.624;11.698;2023-06-04T14:58:06;32.20;42.70
66928;DHT22;59882;45.624;11.698;2023-06-04T15:00:32;32.30;42.70
66928;DHT22;59882;45.624;11.698;2023-06-04T15:02:58;32.30;42.00
66928;DHT22;59882;45.624;11.698;2023-06-04T15:05:25;32.40;41.90
66928;DHT22;59882;45.624;11.698;2023-06-04T15:07:50;32.50;41.60
66928;DHT22;59882;45.624;11.698;2023-06-04T15:10:16;32.60;40.90
66928;DHT22;59882;45.624;11.698;2023-06-04T15:12:42;32.50;40.50
66928;DHT22;59882;45.624;11.698;2023-06-04T15:15:09;32.50;40.50
66928;DHT22;59882;45.624;11.698;2023-06-04T15:17:35;32.50;41.50
66928;DHT22;59882;45.624;11.698;2023-06-04T15:20:04;32.50;41.70
66928;DHT22;59882;45.624;11.698;2023-06-04T15:22:31;32.40;41.60
66928;DHT22;59882;45.624;11.698;2023-06-04T15:24:56;32.40;41.10
66928;DHT22;59882;45.624;11.698;2023-06-04T15:27:22;32.30;41.20
66928;DHT22;59882;45.624;11.698;2023-06-04T15:29:48;32.20;41.70